sensor_id;sensor_type;location;lat;lon;timestamp;P1;durP1;ratioP1;P2;durP2;ratioP2
2041;SDS011;1026;51.460;7.252;2023-12-04T00:01:53;8.70;;;6.00;;
2041;SDS011;1026;51.460;7.252;2023-12-04T00:04:47;8.50;;;6.40;;
2041;SDS011;1026;51.460;7.252;2023-12-04T00:07:21;7.97;;;6.63;;
2041;SDS011;1026;51.460;7.252;2023-12-04T00:09:48;9.80;;;7.10;;
2041;SDS011;1026;51.460;7.252;2023-12-04T00:12:22;12.33;;;6.33;;
2041;SDS011;1026;51.460;7.252;2023-12-04T00:14:50;8.80;;;6.60;;
2041;SDS011;1026;51.460;7.252;2023-12-04T00:17:17;8.23;;;6.50;;
2041;SDS011;1026;51.460;7.252;2023-12-04T00:19:50;10.73;;;6.27;;
2041;SDS011;1026;51.460;7.252;2023-12-04T00:22:24;8.60;;;5.90;;
2041;SDS011;1026;51.460;7.252;2023-12-04T00:24:51;10.67;;;6.20;;
2041;SDS011;1026;51.460;7.252;2023-12-04T00:27:24;10.40;;;6.23;;
2041;SDS011;1026;51.460;7.252;2023-12-04T00:29:54;8.87;;;7.60;;
2041;SDS011;1026;51.460;7.252;2023-12-04T00:32:21;8.40;;;5.43;;
2041;SDS011;1026;51.460;7.252;2023-12-04T00:34:55;8.70;;;6.67;;
2041;SDS011;1026;51.460;7.252;2023-12-04T00:40:36;8.30;;;5.67;;
2041;SDS011;1026;51.460;7.252;2023-12-04T00:43:03;10.37;;;6.40;;
2041;SDS011;1026;51.460;7.252;2023-12-04T00:46:00;10.80;;;6.10;;
2041;SDS011;1026;51.460;7.252;2023-12-04T00:48:27;9.70;;;6.30;;
2041;SDS011;1026;51.460;7.252;2023-12-04T00:51:00;9.20;;;6.53;;
2041;SDS011;1026;51.460;7.252;2023-12-04T00:53:27;11.67;;;7.43;;
2041;SDS011;1026;51.460;7.252;2023-12-04T00:56:01;9.00;;;6.37;;
2041;SDS011;1026;51.460;7.252;2023-12-04T00:58:28;11.53;;;6.73;;
2041;SDS011;1026;51.460;7.252;2023-12-04T01:00:55;9.10;;;6.17;;
2041;SDS011;1026;51.460;7.252;2023-12-04T01:03:29;7.97;;;6.63;;
2041;SDS011;1026;51.460;7.252;2023-12-04T01:06:00;7.90;;;5.50;;
2041;SDS011;1026;51.460;7.252;2023-12-04T01:08:34;8.33;;;5.90;;
2041;SDS011;1026;51.460;7.252;2023-12-04T01:11:08;9.80;;;6.37;;
2041;SDS011;1026;51.460;7.252;2023-12-04T01:13:42;10.70;;;6.50;;
2041;SDS011;1026;51.460;7.252;2023-12-04T01:16:16;10.63;;;5.57;;
2041;SDS011;1026;51.460;7.252;2023-12-04T01:18:55;9.27;;;6.67;;
2041;SDS011;1026;51.460;7.252;2023-12-04T01:21:28;5.80;;;4.80;;
2041;SDS011;1026;51.460;7.252;2023-12-04T01:23:55;8.30;;;5.97;;
2041;SDS011;1026;51.460;7.252;2023-12-04T01:26:22;8.90;;;6.20;;
2041;SDS011;1026;51.460;7.252;2023-12-04T01:29:06;8.50;;;6.27;;
2041;SDS011;1026;51.460;7.252;2023-12-04T01:31:40;6.33;;;4.60;;
2041;SDS011;1026;51.460;7.252;2023-12-04T01:34:13;7.80;;;5.80;;
2041;SDS011;1026;51.460;7.252;2023-12-04T01:37:18;7.97;;;5.53;;
2041;SDS011;1026;51.460;7.252;2023-12-04T01:39:51;7.97;;;5.80;;
2041;SDS011;1026;51.460;7.252;2023-12-04T01:42:25;6.40;;;5.20;;
2041;SDS011;1026;51.460;7.252;2023-12-04T01:44:55;8.30;;;5.70;;
2041;SDS011;1026;51.460;7.252;2023-12-04T01:47:29;7.40;;;5.50;;
2041;SDS011;1026;51.460;7.252;2023-12-04T01:50:02;9.53;;;6.60;;
2041;SDS011;1026;51.460;7.252;2023-12-04T01:52:57;8.63;;;5.70;;
2041;SDS011;1026;51.460;7.252;2023-12-04T01:55:31;10.70;;;7.10;;
2041;SDS011;1026;51.460;7.252;2023-12-04T01:58:00;7.70;;;5.40;;
2041;SDS011;1026;51.460;7.252;2023-12-04T02:00:30;7.97;;;5.70;;
2041;SDS011;1026;51.460;7.252;2023-12-04T02:03:04;6.50;;;5.13;;
2041;SDS011;1026;51.460;7.252;2023-12-04T02:05:31;7.77;;;5.30;;
2041;SDS011;1026;51.460;7.252;2023-12-04T02:07:59;8.17;;;6.33;;
2041;SDS011;1026;51.460;7.252;2023-12-04T02:10:33;7.17;;;5.53;;
2041;SDS011;1026;51.460;7.252;2023-12-04T02:13:07;8.00;;;5.03;;
2041;SDS011;1026;51.460;7.252;2023-12-04T02:15:40;10.87;;;6.07;;
2041;SDS011;1026;51.460;7.252;2023-12-04T02:18:13;9.00;;;6.23;;
2041;SDS011;1026;51.460;7.252;2023-12-04T02:20:40;9.10;;;6.77;;
2041;SDS011;1026;51.460;7.252;2023-12-04T02:23:09;6.30;;;5.37;;
2041;SDS011;1026;51.460;7.252;2023-12-04T02:25:42;8.77;;;5.70;;
2041;SDS011;1026;51.460;7.252;2023-12-04T02:28:10;8.47;;;5.70;;
2041;SDS011;1026;51.460;7.252;2023-12-04T02:30:41;7.30;;;5.47;;
2041;SDS011;1026;51.460;7.252;2023-12-04T02:33:23;7.13;;;5.60;;
2041;SDS011;1026;51.460;7.252;2023-12-04T02:35:51;8.73;;;6.20;;
2041;SDS011;1026;51.460;7.252;2023-12-04T02:38:26;8.40;;;5.80;;
2041;SDS011;1026;51.460;7.252;2023-12-04T02:41:00;8.37;;;6.17;;
2041;SDS011;1026;51.460;7.252;2023-12-04T02:43:33;6.40;;;5.30;;
2041;SDS011;1026;51.460;7.252;2023-12-04T02:46:00;6.80;;;4.80;;
2041;SDS011;1026;51.460;7.252;2023-12-04T02:48:34;5.90;;;4.70;;
2041;SDS011;1026;51.460;7.252;2023-12-04T02:51:02;8.53;;;5.87;;
2041;SDS011;1026;51.460;7.252;2023-12-04T02:53:30;7.60;;;5.47;;
2041;SDS011;1026;51.460;7.252;2023-12-04T02:56:04;13.23;;;6.60;;
2041;SDS011;1026;51.460;7.252;2023-12-04T02:58:32;7.67;;;5.77;;
2041;SDS011;1026;51.460;7.252;2023-12-04T03:01:01;8.17;;;6.13;;
2041;SDS011;1026;51.460;7.252;2023-12-04T03:03:34;5.30;;;4.53;;
2041;SDS011;1026;51.460;7.252;2023-12-04T03:06:02;8.10;;;5.87;;
2041;SDS011;1026;51.460;7.252;2023-12-04T03:08:29;7.93;;;5.03;;
2041;SDS011;1026;51.460;7.252;2023-12-04T03:11:02;7.23;;;5.40;;
2041;SDS011;1026;51.460;7.252;2023-12-04T03:13:29;10.33;;;5.30;;
2041;SDS011;1026;51.460;7.252;2023-12-04T03:15:56;8.93;;;5.70;;
2041;SDS011;1026;51.460;7.252;2023-12-04T03:18:30;7.83;;;4.90;;
2041;SDS011;1026;51.460;7.252;2023-12-04T03:21:03;7.03;;;4.50;;
2041;SDS011;1026;51.460;7.252;2023-12-04T03:23:30;7.70;;;5.50;;
2041;SDS011;1026;51.460;7.252;2023-12-04T03:25:57;4.50;;;3.80;;
2041;SDS011;1026;51.460;7.252;2023-12-04T03:28:31;6.37;;;5.67;;
2041;SDS011;1026;51.460;7.252;2023-12-04T03:30:58;7.87;;;5.30;;
2041;SDS011;1026;51.460;7.252;2023-12-04T03:33:31;7.57;;;5.30;;
2041;SDS011;1026;51.460;7.252;2023-12-04T03:36:42;8.07;;;5.90;;
2041;SDS011;1026;51.460;7.252;2023-12-04T03:39:23;7.17;;;5.13;;
2041;SDS011;1026;51.460;7.252;2023-12-04T03:41:50;9.10;;;4.70;;
2041;SDS011;1026;51.460;7.252;2023-12-04T03:44:24;6.00;;;5.10;;
2041;SDS011;1026;51.460;7.252;2023-12-04T03:46:51;6.60;;;4.80;;
2041;SDS011;1026;51.460;7.252;2023-12-04T03:49:25;6.43;;;4.90;;
2041;SDS011;1026;51.460;7.252;2023-12-04T03:51:52;6.33;;;5.00;;
2041;SDS011;1026;51.460;7.252;2023-12-04T03:54:19;6.13;;;4.37;;
2041;SDS011;1026;51.460;7.252;2023-12-04T03:56:53;7.43;;;5.93;;
2041;SDS011;1026;51.460;7.252;2023-12-04T03:59:20;7.73;;;4.40;;
2041;SDS011;1026;51.460;7.252;2023-12-04T04:01:53;6.20;;;4.87;;
2041;SDS011;1026;51.460;7.252;2023-12-04T04:04:20;7.73;;;5.67;;
2041;SDS011;1026;51.460;7.252;2023-12-04T04:06:53;6.40;;;5.57;;
2041;SDS011;1026;51.460;7.252;2023-12-04T04:09:26;6.87;;;4.70;;
2041;SDS011;1026;51.460;7.252;2023-12-04T04:11:53;6.50;;;4.33;;
2041;SDS011;1026;51.460;7.252;2023-12-04T04:14:20;7.27;;;5.20;;
2041;SDS011;1026;51.460;7.252;2023-12-04T04:16:53;6.53;;;4.90;;
2041;SDS011;1026;51.460;7.252;2023-12-04T04:19:21;6.97;;;5.07;;
2041;SDS011;1026;51.460;7.252;2023-12-04T04:22:09;6.90;;;5.37;;
2041;SDS011;1026;51.460;7.252;2023-12-04T04:24:37;4.93;;;4.43;;
2041;SDS011;1026;51.460;7.252;2023-12-04T04:27:25;6.37;;;4.83;;
2041;SDS011;1026;51.460;7.252;2023-12-04T04:29:52;6.07;;;4.33;;
2041;SDS011;1026;51.460;7.252;2023-12-04T04:32:33;6.93;;;4.97;;
2041;SDS011;1026;51.460;7.252;2023-12-04T04:35:13;6.60;;;5.07;;
2041;SDS011;1026;51.460;7.252;2023-12-04T04:37:47;6.87;;;4.73;;
2041;SDS011;1026;51.460;7.252;2023-12-04T04:40:20;6.93;;;4.60;;
2041;SDS011;1026;51.460;7.252;2023-12-04T04:42:47;6.23;;;4.80;;
2041;SDS011;1026;51.460;7.252;2023-12-04T04:45:14;8.00;;;5.07;;
2041;SDS011;1026;51.460;7.252;2023-12-04T04:47:48;7.33;;;4.70;;
2041;SDS011;1026;51.460;7.252;2023-12-04T04:50:15;6.10;;;4.67;;
2041;SDS011;1026;51.460;7.252;2023-12-04T04:52:49;5.27;;;4.00;;
2041;SDS011;1026;51.460;7.252;2023-12-04T04:55:16;5.23;;;4.60;;
2041;SDS011;1026;51.460;7.252;2023-12-04T04:58:09;6.10;;;4.77;;
2041;SDS011;1026;51.460;7.252;2023-12-04T05:00:36;8.10;;;4.47;;
2041;SDS011;1026;51.460;7.252;2023-12-04T05:03:16;5.27;;;4.07;;
2041;SDS011;1026;51.460;7.252;2023-12-04T05:05:43;5.17;;;4.67;;
2041;SDS011;1026;51.460;7.252;2023-12-04T05:08:16;5.17;;;4.30;;
2041;SDS011;1026;51.460;7.252;2023-12-04T05:10:43;6.53;;;5.40;;
2041;SDS011;1026;51.460;7.252;2023-12-04T05:13:10;4.57;;;3.37;;
2041;SDS011;1026;51.460;7.252;2023-12-04T05:15:43;4.53;;;3.77;;
2041;SDS011;1026;51.460;7.252;2023-12-04T05:18:10;5.60;;;3.90;;
2041;SDS011;1026;51.460;7.252;2023-12-04T05:20:38;5.70;;;4.07;;
2041;SDS011;1026;51.460;7.252;2023-12-04T05:23:11;6.90;;;4.77;;
2041;SDS011;1026;51.460;7.252;2023-12-04T05:25:38;4.80;;;3.67;;
2041;SDS011;1026;51.460;7.252;2023-12-04T05:28:13;6.67;;;4.50;;
2041;SDS011;1026;51.460;7.252;2023-12-04T05:30:53;7.40;;;4.20;;
2041;SDS011;1026;51.460;7.252;2023-12-04T05:33:54;6.23;;;5.63;;
2041;SDS011;1026;51.460;7.252;2023-12-04T05:36:49;5.73;;;4.30;;
2041;SDS011;1026;51.460;7.252;2023-12-04T05:39:22;7.07;;;4.47;;
2041;SDS011;1026;51.460;7.252;2023-12-04T05:41:49;5.90;;;4.27;;
2041;SDS011;1026;51.460;7.252;2023-12-04T05:44:54;4.80;;;3.57;;
2041;SDS011;1026;51.460;7.252;2023-12-04T05:47:56;7.40;;;4.47;;
2041;SDS011;1026;51.460;7.252;2023-12-04T05:50:32;4.90;;;4.17;;
2041;SDS011;1026;51.460;7.252;2023-12-04T05:53:06;5.20;;;4.20;;
2041;SDS011;1026;51.460;7.252;2023-12-04T05:55:34;5.03;;;4.53;;
2041;SDS011;1026;51.460;7.252;2023-12-04T05:58:10;6.40;;;4.20;;
2041;SDS011;1026;51.460;7.252;2023-12-04T06:00:37;5.57;;;4.10;;
2041;SDS011;1026;51.460;7.252;2023-12-04T06:03:04;5.87;;;4.00;;
2041;SDS011;1026;51.460;7.252;2023-12-04T06:05:37;5.00;;;3.67;;
2041;SDS011;1026;51.460;7.252;2023-12-04T06:08:11;5.60;;;4.20;;
2041;SDS011;1026;51.460;7.252;2023-12-04T06:10:45;5.30;;;3.67;;
2041;SDS011;1026;51.460;7.252;2023-12-04T06:13:19;4.57;;;3.37;;
2041;SDS011;1026;51.460;7.252;2023-12-04T06:15:46;4.10;;;3.60;;
2041;SDS011;1026;51.460;7.252;2023-12-04T06:18:13;6.13;;;4.20;;
2041;SDS011;1026;51.460;7.252;2023-12-04T06:20:46;5.87;;;4.13;;
2041;SDS011;1026;51.460;7.252;2023-12-04T06:23:13;4.73;;;3.60;;
2041;SDS011;1026;51.460;7.252;2023-12-04T06:25:47;4.43;;;2.93;;
2041;SDS011;1026;51.460;7.252;2023-12-04T06:28:14;4.70;;;4.30;;
2041;SDS011;1026;51.460;7.252;2023-12-04T06:30:48;5.20;;;4.47;;
2041;SDS011;1026;51.460;7.252;2023-12-04T06:33:29;4.83;;;4.00;;
2041;SDS011;1026;51.460;7.252;2023-12-04T06:35:56;5.63;;;4.10;;
2041;SDS011;1026;51.460;7.252;2023-12-04T06:38:31;4.10;;;3.50;;
2041;SDS011;1026;51.460;7.252;2023-12-04T06:41:19;5.00;;;4.20;;
2041;SDS011;1026;51.460;7.252;2023-12-04T06:43:54;3.87;;;3.40;;
2041;SDS011;1026;51.460;7.252;2023-12-04T06:46:22;6.90;;;4.60;;
2041;SDS011;1026;51.460;7.252;2023-12-04T06:49:11;8.47;;;5.03;;
2041;SDS011;1026;51.460;7.252;2023-12-04T06:51:42;6.90;;;5.60;;
2041;SDS011;1026;51.460;7.252;2023-12-04T06:54:30;10.37;;;5.47;;
2041;SDS011;1026;51.460;7.252;2023-12-04T06:56:57;6.90;;;4.93;;
2041;SDS011;1026;51.460;7.252;2023-12-04T06:59:31;6.40;;;4.67;;
2041;SDS011;1026;51.460;7.252;2023-12-04T07:01:58;6.47;;;4.83;;
2041;SDS011;1026;51.460;7.252;2023-12-04T07:04:32;5.90;;;4.63;;
2041;SDS011;1026;51.460;7.252;2023-12-04T07:07:00;8.33;;;5.70;;
2041;SDS011;1026;51.460;7.252;2023-12-04T07:09:37;5.90;;;4.43;;
2041;SDS011;1026;51.460;7.252;2023-12-04T07:12:11;7.53;;;5.17;;
2041;SDS011;1026;51.460;7.252;2023-12-04T07:14:38;6.03;;;4.90;;
2041;SDS011;1026;51.460;7.252;2023-12-04T07:17:05;5.43;;;4.43;;
2041;SDS011;1026;51.460;7.252;2023-12-04T07:19:40;7.57;;;5.50;;
2041;SDS011;1026;51.460;7.252;2023-12-04T07:22:08;5.63;;;4.20;;
2041;SDS011;1026;51.460;7.252;2023-12-04T07:24:42;6.07;;;4.70;;
2041;SDS011;1026;51.460;7.252;2023-12-04T07:27:15;7.07;;;4.80;;
2041;SDS011;1026;51.460;7.252;2023-12-04T07:29:43;8.93;;;5.37;;
2041;SDS011;1026;51.460;7.252;2023-12-04T07:32:10;8.73;;;5.10;;
2041;SDS011;1026;51.460;7.252;2023-12-04T07:34:44;8.47;;;5.23;;
2041;SDS011;1026;51.460;7.252;2023-12-04T07:37:24;4.83;;;3.77;;
2041;SDS011;1026;51.460;7.252;2023-12-04T07:40:19;6.70;;;4.80;;
2041;SDS011;1026;51.460;7.252;2023-12-04T07:42:53;6.90;;;4.33;;
2041;SDS011;1026;51.460;7.252;2023-12-04T07:45:27;4.93;;;4.43;;
2041;SDS011;1026;51.460;7.252;2023-12-04T07:47:55;7.70;;;5.30;;
2041;SDS011;1026;51.460;7.252;2023-12-04T07:50:28;6.80;;;4.40;;
2041;SDS011;1026;51.460;7.252;2023-12-04T07:52:55;7.53;;;5.00;;
2041;SDS011;1026;51.460;7.252;2023-12-04T07:55:28;6.30;;;5.47;;
2041;SDS011;1026;51.460;7.252;2023-12-04T07:57:56;8.63;;;5.20;;
2041;SDS011;1026;51.460;7.252;2023-12-04T08:00:29;7.47;;;5.20;;
2041;SDS011;1026;51.460;7.252;2023-12-04T08:03:03;5.13;;;4.27;;
2041;SDS011;1026;51.460;7.252;2023-12-04T08:05:40;4.60;;;4.10;;
2041;SDS011;1026;51.460;7.252;2023-12-04T08:08:23;8.13;;;5.23;;
2041;SDS011;1026;51.460;7.252;2023-12-04T08:11:18;6.37;;;4.70;;
2041;SDS011;1026;51.460;7.252;2023-12-04T08:13:51;5.47;;;4.10;;
2041;SDS011;1026;51.460;7.252;2023-12-04T08:16:18;7.10;;;4.30;;
2041;SDS011;1026;51.460;7.252;2023-12-04T08:18:52;7.60;;;4.60;;
2041;SDS011;1026;51.460;7.252;2023-12-04T08:21:20;6.73;;;5.23;;
2041;SDS011;1026;51.460;7.252;2023-12-04T08:23:53;7.43;;;5.00;;
2041;SDS011;1026;51.460;7.252;2023-12-04T08:26:27;5.83;;;4.07;;
2041;SDS011;1026;51.460;7.252;2023-12-04T08:29:00;5.40;;;4.60;;
2041;SDS011;1026;51.460;7.252;2023-12-04T08:31:27;6.83;;;4.60;;
2041;SDS011;1026;51.460;7.252;2023-12-04T08:34:14;5.70;;;4.60;;
2041;SDS011;1026;51.460;7.252;2023-12-04T08:36:48;5.13;;;4.60;;
2041;SDS011;1026;51.460;7.252;2023-12-04T08:39:16;6.50;;;4.20;;
2041;SDS011;1026;51.460;7.252;2023-12-04T08:41:49;5.23;;;3.80;;
2041;SDS011;1026;51.460;7.252;2023-12-04T08:44:28;6.37;;;4.47;;
2041;SDS011;1026;51.460;7.252;2023-12-04T08:47:02;6.30;;;4.00;;
2041;SDS011;1026;51.460;7.252;2023-12-04T08:49:29;5.35;;;4.40;;
2041;SDS011;1026;51.460;7.252;2023-12-04T08:52:08;4.90;;;4.20;;
2041;SDS011;1026;51.460;7.252;2023-12-04T08:54:42;4.40;;;4.00;;
2041;SDS011;1026;51.460;7.252;2023-12-04T08:57:08;5.60;;;4.63;;
2041;SDS011;1026;51.460;7.252;2023-12-04T08:59:42;5.20;;;4.13;;
2041;SDS011;1026;51.460;7.252;2023-12-04T09:02:15;6.57;;;4.40;;
2041;SDS011;1026;51.460;7.252;2023-12-04T09:04:43;5.93;;;4.07;;
2041;SDS011;1026;51.460;7.252;2023-12-04T09:07:11;4.63;;;4.00;;
2041;SDS011;1026;51.460;7.252;2023-12-04T09:09:47;4.40;;;3.87;;
2041;SDS011;1026;51.460;7.252;2023-12-04T09:12:15;3.70;;;3.10;;
2041;SDS011;1026;51.460;7.252;2023-12-04T09:14:49;6.00;;;3.53;;
2041;SDS011;1026;51.460;7.252;2023-12-04T09:17:17;6.30;;;5.10;;
2041;SDS011;1026;51.460;7.252;2023-12-04T09:19:44;4.30;;;3.50;;
2041;SDS011;1026;51.460;7.252;2023-12-04T09:22:18;6.47;;;4.50;;
2041;SDS011;1026;51.460;7.252;2023-12-04T09:24:46;5.20;;;4.37;;
2041;SDS011;1026;51.460;7.252;2023-12-04T09:27:22;5.13;;;4.10;;
2041;SDS011;1026;51.460;7.252;2023-12-04T09:29:49;3.93;;;3.27;;
2041;SDS011;1026;51.460;7.252;2023-12-04T09:32:22;4.73;;;3.73;;
2041;SDS011;1026;51.460;7.252;2023-12-04T09:35:03;8.60;;;4.23;;
2041;SDS011;1026;51.460;7.252;2023-12-04T09:37:37;5.50;;;3.57;;
2041;SDS011;1026;51.460;7.252;2023-12-04T09:40:10;6.00;;;3.70;;
2041;SDS011;1026;51.460;7.252;2023-12-04T09:42:39;4.70;;;3.60;;
2041;SDS011;1026;51.460;7.252;2023-12-04T09:45:12;5.83;;;3.50;;
2041;SDS011;1026;51.460;7.252;2023-12-04T09:47:42;3.67;;;3.17;;
2041;SDS011;1026;51.460;7.252;2023-12-04T09:50:16;3.20;;;2.90;;
2041;SDS011;1026;51.460;7.252;2023-12-04T09:52:48;4.63;;;3.40;;
2041;SDS011;1026;51.460;7.252;2023-12-04T09:55:23;3.47;;;3.17;;
2041;SDS011;1026;51.460;7.252;2023-12-04T09:57:51;3.40;;;3.10;;
2041;SDS011;1026;51.460;7.252;2023-12-04T10:00:24;4.17;;;3.13;;
2041;SDS011;1026;51.460;7.252;2023-12-04T10:02:52;3.60;;;3.10;;
2041;SDS011;1026;51.460;7.252;2023-12-04T10:05:25;6.73;;;3.93;;
2041;SDS011;1026;51.460;7.252;2023-12-04T10:07:52;4.50;;;3.20;;
2041;SDS011;1026;51.460;7.252;2023-12-04T10:10:25;3.80;;;2.83;;
2041;SDS011;1026;51.460;7.252;2023-12-04T10:12:52;4.63;;;3.93;;
2041;SDS011;1026;51.460;7.252;2023-12-04T10:15:27;4.17;;;3.53;;
2041;SDS011;1026;51.460;7.252;2023-12-04T10:18:01;3.53;;;2.70;;
2041;SDS011;1026;51.460;7.252;2023-12-04T10:20:28;3.90;;;3.50;;
2041;SDS011;1026;51.460;7.252;2023-12-04T10:25:37;5.00;;;3.90;;
2041;SDS011;1026;51.460;7.252;2023-12-04T10:28:11;4.97;;;3.53;;
2041;SDS011;1026;51.460;7.252;2023-12-04T10:30:48;4.87;;;3.17;;
2041;SDS011;1026;51.460;7.252;2023-12-04T10:33:31;3.10;;;2.80;;
2041;SDS011;1026;51.460;7.252;2023-12-04T10:36:11;3.27;;;2.97;;
2041;SDS011;1026;51.460;7.252;2023-12-04T10:38:46;3.87;;;3.43;;
2041;SDS011;1026;51.460;7.252;2023-12-04T10:41:12;4.13;;;3.37;;
2041;SDS011;1026;51.460;7.252;2023-12-04T10:43:46;5.57;;;3.53;;
2041;SDS011;1026;51.460;7.252;2023-12-04T10:46:49;5.10;;;3.30;;
2041;SDS011;1026;51.460;7.252;2023-12-04T10:49:44;4.33;;;3.27;;
2041;SDS011;1026;51.460;7.252;2023-12-04T10:52:18;4.50;;;3.50;;
2041;SDS011;1026;51.460;7.252;2023-12-04T10:54:48;4.10;;;2.80;;
2041;SDS011;1026;51.460;7.252;2023-12-04T10:57:26;3.53;;;3.13;;
2041;SDS011;1026;51.460;7.252;2023-12-04T10:59:56;3.60;;;2.90;;
2041;SDS011;1026;51.460;7.252;2023-12-04T11:02:41;4.30;;;3.10;;
2041;SDS011;1026;51.460;7.252;2023-12-04T11:05:16;4.07;;;3.33;;
2041;SDS011;1026;51.460;7.252;2023-12-04T11:07:56;3.53;;;2.97;;
2041;SDS011;1026;51.460;7.252;2023-12-04T11:10:48;3.80;;;3.17;;
2041;SDS011;1026;51.460;7.252;2023-12-04T11:13:30;4.50;;;3.10;;
2041;SDS011;1026;51.460;7.252;2023-12-04T11:16:02;3.83;;;3.20;;
2041;SDS011;1026;51.460;7.252;2023-12-04T11:18:43;4.20;;;2.97;;
2041;SDS011;1026;51.460;7.252;2023-12-04T11:21:16;4.00;;;2.90;;
2041;SDS011;1026;51.460;7.252;2023-12-04T11:23:47;5.17;;;2.77;;
2041;SDS011;1026;51.460;7.252;2023-12-04T11:26:14;4.47;;;3.50;;
2041;SDS011;1026;51.460;7.252;2023-12-04T11:28:49;4.70;;;3.60;;
2041;SDS011;1026;51.460;7.252;2023-12-04T11:31:16;4.47;;;3.90;;
2041;SDS011;1026;51.460;7.252;2023-12-04T11:33:43;3.50;;;3.10;;
2041;SDS011;1026;51.460;7.252;2023-12-04T11:36:23;5.50;;;5.00;;
2041;SDS011;1026;51.460;7.252;2023-12-04T11:38:52;3.20;;;2.90;;
2041;SDS011;1026;51.460;7.252;2023-12-04T11:41:25;3.90;;;3.40;;
2041;SDS011;1026;51.460;7.252;2023-12-04T11:44:00;4.90;;;4.03;;
2041;SDS011;1026;51.460;7.252;2023-12-04T11:46:55;5.90;;;3.53;;
2041;SDS011;1026;51.460;7.252;2023-12-04T11:49:26;4.10;;;3.70;;
2041;SDS011;1026;51.460;7.252;2023-12-04T11:52:03;3.93;;;3.20;;
2041;SDS011;1026;51.460;7.252;2023-12-04T11:57:39;4.50;;;4.10;;
2041;SDS011;1026;51.460;7.252;2023-12-04T12:00:18;5.37;;;4.67;;
2041;SDS011;1026;51.460;7.252;2023-12-04T12:05:49;3.73;;;3.10;;
2041;SDS011;1026;51.460;7.252;2023-12-04T12:08:19;5.10;;;3.47;;
2041;SDS011;1026;51.460;7.252;2023-12-04T12:10:46;5.20;;;4.10;;
2041;SDS011;1026;51.460;7.252;2023-12-04T12:13:20;5.93;;;3.73;;
2041;SDS011;1026;51.460;7.252;2023-12-04T12:15:48;6.50;;;3.73;;
2041;SDS011;1026;51.460;7.252;2023-12-04T12:18:23;5.70;;;4.00;;
2041;SDS011;1026;51.460;7.252;2023-12-04T12:20:52;3.60;;;3.07;;
2041;SDS011;1026;51.460;7.252;2023-12-04T12:23:27;4.70;;;3.80;;
2041;SDS011;1026;51.460;7.252;2023-12-04T12:25:55;4.40;;;4.00;;
2041;SDS011;1026;51.460;7.252;2023-12-04T12:28:29;4.63;;;4.00;;
2041;SDS011;1026;51.460;7.252;2023-12-04T12:30:56;5.17;;;3.80;;
2041;SDS011;1026;51.460;7.252;2023-12-04T12:33:33;4.07;;;3.60;;
2041;SDS011;1026;51.460;7.252;2023-12-04T12:36:07;4.13;;;3.20;;
2041;SDS011;1026;51.460;7.252;2023-12-04T12:38:44;5.90;;;4.70;;
2041;SDS011;1026;51.460;7.252;2023-12-04T12:41:22;4.60;;;3.73;;
2041;SDS011;1026;51.460;7.252;2023-12-04T12:43:51;5.50;;;3.93;;
2041;SDS011;1026;51.460;7.252;2023-12-04T12:46:25;3.20;;;2.90;;
2041;SDS011;1026;51.460;7.252;2023-12-04T12:48:53;4.10;;;3.60;;
2041;SDS011;1026;51.460;7.252;2023-12-04T12:51:27;7.80;;;4.37;;
2041;SDS011;1026;51.460;7.252;2023-12-04T12:53:56;4.50;;;3.63;;
2041;SDS011;1026;51.460;7.252;2023-12-04T12:56:28;4.13;;;3.00;;
2041;SDS011;1026;51.460;7.252;2023-12-04T12:59:02;3.93;;;3.53;;
2041;SDS011;1026;51.460;7.252;2023-12-04T13:01:31;3.93;;;3.53;;
2041;SDS011;1026;51.460;7.252;2023-12-04T13:04:06;4.00;;;3.23;;
2041;SDS011;1026;51.460;7.252;2023-12-04T13:06:39;4.10;;;3.70;;
2041;SDS011;1026;51.460;7.252;2023-12-04T13:09:06;5.00;;;3.47;;
2041;SDS011;1026;51.460;7.252;2023-12-04T13:11:39;3.63;;;3.30;;
2041;SDS011;1026;51.460;7.252;2023-12-04T13:14:06;4.73;;;3.10;;
2041;SDS011;1026;51.460;7.252;2023-12-04T13:16:33;5.30;;;4.10;;
2041;SDS011;1026;51.460;7.252;2023-12-04T13:19:07;4.67;;;3.20;;
2041;SDS011;1026;51.460;7.252;2023-12-04T13:21:35;5.43;;;4.20;;
2041;SDS011;1026;51.460;7.252;2023-12-04T13:24:09;5.77;;;4.00;;
2041;SDS011;1026;51.460;7.252;2023-12-04T13:26:37;4.47;;;3.13;;
2041;SDS011;1026;51.460;7.252;2023-12-04T13:29:04;4.87;;;4.07;;
2041;SDS011;1026;51.460;7.252;2023-12-04T13:31:45;4.87;;;4.07;;
2041;SDS011;1026;51.460;7.252;2023-12-04T13:34:25;4.77;;;3.30;;
2041;SDS011;1026;51.460;7.252;2023-12-04T13:36:58;5.97;;;3.87;;
2041;SDS011;1026;51.460;7.252;2023-12-04T13:39:32;4.33;;;3.93;;
2041;SDS011;1026;51.460;7.252;2023-12-04T13:42:15;5.77;;;4.50;;
2041;SDS011;1026;51.460;7.252;2023-12-04T13:45:07;5.10;;;3.93;;
2041;SDS011;1026;51.460;7.252;2023-12-04T13:47:35;5.60;;;3.60;;
2041;SDS011;1026;51.460;7.252;2023-12-04T13:50:14;5.10;;;4.40;;
2041;SDS011;1026;51.460;7.252;2023-12-04T13:52:41;5.47;;;3.87;;
2041;SDS011;1026;51.460;7.252;2023-12-04T13:55:42;5.87;;;3.93;;
2041;SDS011;1026;51.460;7.252;2023-12-04T13:58:47;5.47;;;3.43;;
2041;SDS011;1026;51.460;7.252;2023-12-04T14:01:27;4.40;;;3.90;;
2041;SDS011;1026;51.460;7.252;2023-12-04T14:03:56;4.10;;;3.70;;
2041;SDS011;1026;51.460;7.252;2023-12-04T14:06:28;4.57;;;3.67;;
2041;SDS011;1026;51.460;7.252;2023-12-04T14:09:03;5.33;;;3.97;;
2041;SDS011;1026;51.460;7.252;2023-12-04T14:11:36;4.90;;;4.10;;
2041;SDS011;1026;51.460;7.252;2023-12-04T14:14:10;4.07;;;3.47;;
2041;SDS011;1026;51.460;7.252;2023-12-04T14:16:40;6.20;;;3.20;;
2041;SDS011;1026;51.460;7.252;2023-12-04T14:19:15;4.13;;;3.50;;
2041;SDS011;1026;51.460;7.252;2023-12-04T14:21:51;5.27;;;3.73;;
2041;SDS011;1026;51.460;7.252;2023-12-04T14:24:18;4.43;;;3.20;;
2041;SDS011;1026;51.460;7.252;2023-12-04T14:26:52;5.43;;;3.43;;
2041;SDS011;1026;51.460;7.252;2023-12-04T14:29:22;4.80;;;3.60;;
2041;SDS011;1026;51.460;7.252;2023-12-04T14:32:02;4.70;;;4.30;;
2041;SDS011;1026;51.460;7.252;2023-12-04T14:34:44;5.07;;;3.93;;
2041;SDS011;1026;51.460;7.252;2023-12-04T14:37:18;6.07;;;4.40;;
2041;SDS011;1026;51.460;7.252;2023-12-04T14:39:45;5.47;;;3.77;;
2041;SDS011;1026;51.460;7.252;2023-12-04T14:42:12;3.90;;;3.13;;
2041;SDS011;1026;51.460;7.252;2023-12-04T14:44:45;4.17;;;3.70;;
2041;SDS011;1026;51.460;7.252;2023-12-04T14:47:14;4.10;;;2.77;;
2041;SDS011;1026;51.460;7.252;2023-12-04T14:49:48;5.03;;;3.53;;
2041;SDS011;1026;51.460;7.252;2023-12-04T14:52:20;3.53;;;3.20;;
2041;SDS011;1026;51.460;7.252;2023-12-04T14:54:55;7.67;;;4.43;;
2041;SDS011;1026;51.460;7.252;2023-12-04T14:58:04;3.83;;;3.27;;
2041;SDS011;1026;51.460;7.252;2023-12-04T15:00:58;4.40;;;3.70;;
2041;SDS011;1026;51.460;7.252;2023-12-04T15:03:45;3.60;;;3.30;;
2041;SDS011;1026;51.460;7.252;2023-12-04T15:06:51;3.60;;;3.30;;
2041;SDS011;1026;51.460;7.252;2023-12-04T15:09:44;3.97;;;2.70;;
2041;SDS011;1026;51.460;7.252;2023-12-04T15:12:38;2.10;;;1.90;;
2041;SDS011;1026;51.460;7.252;2023-12-04T15:15:41;4.60;;;3.40;;
2041;SDS011;1026;51.460;7.252;2023-12-04T15:18:26;4.40;;;3.27;;
2041;SDS011;1026;51.460;7.252;2023-12-04T15:21:11;4.00;;;2.97;;
2041;SDS011;1026;51.460;7.252;2023-12-04T15:23:38;3.00;;;2.70;;
2041;SDS011;1026;51.460;7.252;2023-12-04T15:26:05;4.60;;;3.70;;
2041;SDS011;1026;51.460;7.252;2023-12-04T15:28:39;3.47;;;3.10;;
2041;SDS011;1026;51.460;7.252;2023-12-04T15:31:05;4.00;;;3.60;;
2041;SDS011;1026;51.460;7.252;2023-12-04T15:33:45;4.03;;;2.53;;
2041;SDS011;1026;51.460;7.252;2023-12-04T15:36:26;3.90;;;2.53;;
2041;SDS011;1026;51.460;7.252;2023-12-04T15:39:00;5.93;;;3.77;;
2041;SDS011;1026;51.460;7.252;2023-12-04T15:41:27;4.10;;;3.50;;
2041;SDS011;1026;51.460;7.252;2023-12-04T15:43:53;2.93;;;2.70;;
2041;SDS011;1026;51.460;7.252;2023-12-04T15:46:27;3.50;;;3.20;;
2041;SDS011;1026;51.460;7.252;2023-12-04T15:48:55;4.30;;;3.30;;
2041;SDS011;1026;51.460;7.252;2023-12-04T15:51:22;4.93;;;3.47;;
2041;SDS011;1026;51.460;7.252;2023-12-04T15:53:57;3.93;;;2.70;;
2041;SDS011;1026;51.460;7.252;2023-12-04T15:56:23;3.10;;;2.80;;
2041;SDS011;1026;51.460;7.252;2023-12-04T15:58:51;4.47;;;3.30;;
2041;SDS011;1026;51.460;7.252;2023-12-04T16:01:24;4.13;;;3.03;;
2041;SDS011;1026;51.460;7.252;2023-12-04T16:03:51;3.23;;;2.93;;
2041;SDS011;1026;51.460;7.252;2023-12-04T16:06:25;2.63;;;2.43;;
2041;SDS011;1026;51.460;7.252;2023-12-04T16:08:52;3.70;;;2.93;;